sensor_id;sensor_type;location;lat;lon;timestamp;P1;durP1;ratioP1;P2;durP2;ratioP2
3257;SDS011;1641;51.306;12.384;2023-09-07T00:01:50;7.32;;;5.07;;
3257;SDS011;1641;51.306;12.384;2023-09-07T00:04:18;8.40;;;4.95;;
3257;SDS011;1641;51.306;12.384;2023-09-07T00:06:47;5.55;;;5.05;;
3257;SDS011;1641;51.306;12.384;2023-09-07T00:09:14;6.03;;;5.00;;
3257;SDS011;1641;51.306;12.384;2023-09-07T00:11:41;9.82;;;5.60;;
3257;SDS011;1641;51.306;12.384;2023-09-07T00:14:06;10.48;;;5.60;;
3257;SDS011;1641;51.306;12.384;2023-09-07T00:16:32;7.60;;;6.00;;
3257;SDS011;1641;51.306;12.384;2023-09-07T00:19:00;6.50;;;5.28;;
3257;SDS011;1641;51.306;12.384;2023-09-07T00:21:25;9.25;;;5.32;;
3257;SDS011;1641;51.306;12.384;2023-09-07T00:23:50;6.78;;;4.97;;
3257;SDS011;1641;51.306;12.384;2023-09-07T00:26:16;8.25;;;5.10;;
3257;SDS011;1641;51.306;12.384;2023-09-07T00:28:41;10.57;;;5.15;;
3257;SDS011;1641;51.306;12.384;2023-09-07T00:31:06;6.60;;;5.47;;
3257;SDS011;1641;51.306;12.384;2023-09-07T00:33:31;6.13;;;5.15;;
3257;SDS011;1641;51.306;12.384;2023-09-07T00:35:57;8.35;;;5.82;;
3257;SDS011;1641;51.306;12.384;2023-09-07T00:38:22;8.15;;;5.05;;
3257;SDS011;1641;51.306;12.384;2023-09-07T00:40:47;9.52;;;5.63;;
3257;SDS011;1641;51.306;12.384;2023-09-07T00:43:13;6.50;;;4.45;;
3257;SDS011;1641;51.306;12.384;2023-09-07T00:45:38;6.35;;;5.10;;
3257;SDS011;1641;51.306;12.384;2023-09-07T00:48:04;9.40;;;5.00;;
3257;SDS011;1641;51.306;12.384;2023-09-07T00:50:30;8.65;;;6.45;;
3257;SDS011;1641;51.306;12.384;2023-09-07T00:52:55;6.97;;;5.22;;
3257;SDS011;1641;51.306;12.384;2023-09-07T00:55:21;8.93;;;6.25;;
3257;SDS011;1641;51.306;12.384;2023-09-07T00:57:47;9.90;;;5.97;;
3257;SDS011;1641;51.306;12.384;2023-09-07T01:00:12;10.07;;;5.72;;
3257;SDS011;1641;51.306;12.384;2023-09-07T01:02:41;7.13;;;6.32;;
3257;SDS011;1641;51.306;12.384;2023-09-07T01:05:09;12.60;;;5.97;;
3257;SDS011;1641;51.306;12.384;2023-09-07T01:07:59;10.45;;;5.88;;
3257;SDS011;1641;51.306;12.384;2023-09-07T01:10:24;6.85;;;5.60;;
3257;SDS011;1641;51.306;12.384;2023-09-07T01:12:49;7.25;;;5.68;;
3257;SDS011;1641;51.306;12.384;2023-09-07T01:15:14;9.65;;;5.78;;
3257;SDS011;1641;51.306;12.384;2023-09-07T01:17:40;9.35;;;6.00;;
3257;SDS011;1641;51.306;12.384;2023-09-07T01:20:06;9.48;;;6.13;;
3257;SDS011;1641;51.306;12.384;2023-09-07T01:22:38;8.75;;;5.82;;
3257;SDS011;1641;51.306;12.384;2023-09-07T01:25:05;6.80;;;5.85;;
3257;SDS011;1641;51.306;12.384;2023-09-07T01:27:32;11.55;;;5.85;;
3257;SDS011;1641;51.306;12.384;2023-09-07T01:29:58;7.85;;;6.25;;
3257;SDS011;1641;51.306;12.384;2023-09-07T01:32:24;5.80;;;5.20;;
3257;SDS011;1641;51.306;12.384;2023-09-07T01:34:57;7.47;;;5.55;;
3257;SDS011;1641;51.306;12.384;2023-09-07T01:37:23;7.75;;;5.75;;
3257;SDS011;1641;51.306;12.384;2023-09-07T01:39:48;6.43;;;5.38;;
3257;SDS011;1641;51.306;12.384;2023-09-07T01:42:20;9.88;;;5.68;;
3257;SDS011;1641;51.306;12.384;2023-09-07T01:44:46;6.32;;;5.47;;
3257;SDS011;1641;51.306;12.384;2023-09-07T01:47:12;9.05;;;5.85;;
3257;SDS011;1641;51.306;12.384;2023-09-07T01:49:37;7.68;;;4.97;;
3257;SDS011;1641;51.306;12.384;2023-09-07T01:52:03;6.30;;;5.53;;
3257;SDS011;1641;51.306;12.384;2023-09-07T01:54:28;11.10;;;6.78;;
3257;SDS011;1641;51.306;12.384;2023-09-07T01:56:53;5.93;;;5.32;;
3257;SDS011;1641;51.306;12.384;2023-09-07T01:59:19;8.82;;;6.00;;
3257;SDS011;1641;51.306;12.384;2023-09-07T02:01:44;10.93;;;6.50;;
3257;SDS011;1641;51.306;12.384;2023-09-07T02:04:09;7.35;;;6.32;;
3257;SDS011;1641;51.306;12.384;2023-09-07T02:06:35;11.13;;;6.82;;
3257;SDS011;1641;51.306;12.384;2023-09-07T02:09:00;7.38;;;5.70;;
3257;SDS011;1641;51.306;12.384;2023-09-07T02:11:25;8.95;;;6.50;;
3257;SDS011;1641;51.306;12.384;2023-09-07T02:13:50;7.82;;;5.65;;
3257;SDS011;1641;51.306;12.384;2023-09-07T02:16:16;8.27;;;6.03;;
3257;SDS011;1641;51.306;12.384;2023-09-07T02:18:43;10.02;;;5.95;;
3257;SDS011;1641;51.306;12.384;2023-09-07T02:21:10;6.82;;;6.13;;
3257;SDS011;1641;51.306;12.384;2023-09-07T02:23:48;12.85;;;6.72;;
3257;SDS011;1641;51.306;12.384;2023-09-07T02:26:22;7.38;;;6.30;;
3257;SDS011;1641;51.306;12.384;2023-09-07T02:28:48;8.07;;;7.07;;
3257;SDS011;1641;51.306;12.384;2023-09-07T02:31:13;8.13;;;6.80;;
3257;SDS011;1641;51.306;12.384;2023-09-07T02:33:41;7.70;;;6.63;;
3257;SDS011;1641;51.306;12.384;2023-09-07T02:36:07;12.40;;;7.60;;
3257;SDS011;1641;51.306;12.384;2023-09-07T02:38:32;7.55;;;5.88;;
3257;SDS011;1641;51.306;12.384;2023-09-07T02:40:57;10.75;;;6.50;;
3257;SDS011;1641;51.306;12.384;2023-09-07T02:43:23;8.05;;;7.22;;
3257;SDS011;1641;51.306;12.384;2023-09-07T02:45:49;9.57;;;6.10;;
3257;SDS011;1641;51.306;12.384;2023-09-07T02:48:15;7.55;;;6.60;;
3257;SDS011;1641;51.306;12.384;2023-09-07T02:50:40;8.73;;;6.60;;
3257;SDS011;1641;51.306;12.384;2023-09-07T02:53:06;9.02;;;8.07;;
3257;SDS011;1641;51.306;12.384;2023-09-07T02:55:31;8.00;;;7.15;;
3257;SDS011;1641;51.306;12.384;2023-09-07T02:57:56;10.70;;;7.00;;
3257;SDS011;1641;51.306;12.384;2023-09-07T03:00:22;8.70;;;7.78;;
3257;SDS011;1641;51.306;12.384;2023-09-07T03:02:48;12.48;;;7.82;;
3257;SDS011;1641;51.306;12.384;2023-09-07T03:05:14;9.77;;;7.93;;
3257;SDS011;1641;51.306;12.384;2023-09-07T03:07:40;8.75;;;6.95;;
3257;SDS011;1641;51.306;12.384;2023-09-07T03:10:05;7.35;;;6.70;;
3257;SDS011;1641;51.306;12.384;2023-09-07T03:12:31;11.57;;;7.82;;
3257;SDS011;1641;51.306;12.384;2023-09-07T03:14:56;9.50;;;7.10;;
3257;SDS011;1641;51.306;12.384;2023-09-07T03:17:24;10.00;;;8.55;;
3257;SDS011;1641;51.306;12.384;2023-09-07T03:19:59;8.50;;;7.30;;
3257;SDS011;1641;51.306;12.384;2023-09-07T03:22:24;7.97;;;7.18;;
3257;SDS011;1641;51.306;12.384;2023-09-07T03:24:50;10.13;;;8.23;;
3257;SDS011;1641;51.306;12.384;2023-09-07T03:27:16;8.93;;;7.53;;
3257;SDS011;1641;51.306;12.384;2023-09-07T03:29:41;7.47;;;6.72;;
3257;SDS011;1641;51.306;12.384;2023-09-07T03:32:06;9.35;;;8.30;;
3257;SDS011;1641;51.306;12.384;2023-09-07T03:34:36;8.98;;;7.15;;
3257;SDS011;1641;51.306;12.384;2023-09-07T03:37:01;10.75;;;8.35;;
3257;SDS011;1641;51.306;12.384;2023-09-07T03:39:27;8.93;;;7.78;;
3257;SDS011;1641;51.306;12.384;2023-09-07T03:41:52;11.70;;;7.75;;
3257;SDS011;1641;51.306;12.384;2023-09-07T03:44:18;8.95;;;8.00;;
3257;SDS011;1641;51.306;12.384;2023-09-07T03:46:43;8.80;;;7.70;;
3257;SDS011;1641;51.306;12.384;2023-09-07T03:49:08;8.65;;;7.82;;
3257;SDS011;1641;51.306;12.384;2023-09-07T03:51:34;9.23;;;7.85;;
3257;SDS011;1641;51.306;12.384;2023-09-07T03:53:59;9.30;;;7.88;;
3257;SDS011;1641;51.306;12.384;2023-09-07T03:56:24;11.23;;;8.10;;
3257;SDS011;1641;51.306;12.384;2023-09-07T03:58:50;13.15;;;8.13;;
3257;SDS011;1641;51.306;12.384;2023-09-07T04:01:15;11.18;;;7.60;;
3257;SDS011;1641;51.306;12.384;2023-09-07T04:03:40;11.35;;;8.98;;
3257;SDS011;1641;51.306;12.384;2023-09-07T04:06:06;11.55;;;8.35;;
3257;SDS011;1641;51.306;12.384;2023-09-07T04:08:35;11.98;;;8.57;;
3257;SDS011;1641;51.306;12.384;2023-09-07T04:11:04;12.48;;;9.00;;
3257;SDS011;1641;51.306;12.384;2023-09-07T04:13:30;11.43;;;8.80;;
3257;SDS011;1641;51.306;12.384;2023-09-07T04:15:56;17.73;;;9.43;;
3257;SDS011;1641;51.306;12.384;2023-09-07T04:18:21;15.50;;;9.38;;
3257;SDS011;1641;51.306;12.384;2023-09-07T04:20:47;14.45;;;9.38;;
3257;SDS011;1641;51.306;12.384;2023-09-07T04:23:12;12.27;;;8.82;;
3257;SDS011;1641;51.306;12.384;2023-09-07T04:25:38;12.38;;;8.73;;
3257;SDS011;1641;51.306;12.384;2023-09-07T04:28:21;9.95;;;8.63;;
3257;SDS011;1641;51.306;12.384;2023-09-07T04:30:46;13.52;;;9.73;;
3257;SDS011;1641;51.306;12.384;2023-09-07T04:33:12;17.85;;;9.95;;
3257;SDS011;1641;51.306;12.384;2023-09-07T04:35:37;10.95;;;8.98;;
3257;SDS011;1641;51.306;12.384;2023-09-07T04:38:03;10.93;;;9.35;;
3257;SDS011;1641;51.306;12.384;2023-09-07T04:40:28;12.55;;;9.10;;
3257;SDS011;1641;51.306;12.384;2023-09-07T04:42:54;14.45;;;9.48;;
3257;SDS011;1641;51.306;12.384;2023-09-07T04:45:22;10.57;;;9.20;;
3257;SDS011;1641;51.306;12.384;2023-09-07T04:47:49;13.05;;;9.90;;
3257;SDS011;1641;51.306;12.384;2023-09-07T04:50:15;11.82;;;10.13;;
3257;SDS011;1641;51.306;12.384;2023-09-07T04:52:40;11.38;;;9.07;;
3257;SDS011;1641;51.306;12.384;2023-09-07T04:55:05;12.35;;;9.20;;
3257;SDS011;1641;51.306;12.384;2023-09-07T04:57:41;12.63;;;10.73;;
3257;SDS011;1641;51.306;12.384;2023-09-07T05:00:06;10.95;;;9.57;;
3257;SDS011;1641;51.306;12.384;2023-09-07T05:02:37;11.32;;;9.85;;
3257;SDS011;1641;51.306;12.384;2023-09-07T05:05:06;12.13;;;10.05;;
3257;SDS011;1641;51.306;12.384;2023-09-07T05:07:33;12.10;;;9.85;;
3257;SDS011;1641;51.306;12.384;2023-09-07T05:10:04;19.85;;;9.70;;
3257;SDS011;1641;51.306;12.384;2023-09-07T05:12:31;11.48;;;10.27;;
3257;SDS011;1641;51.306;12.384;2023-09-07T05:14:57;12.90;;;10.77;;
3257;SDS011;1641;51.306;12.384;2023-09-07T05:17:22;13.73;;;10.23;;
3257;SDS011;1641;51.306;12.384;2023-09-07T05:19:47;10.77;;;9.68;;
3257;SDS011;1641;51.306;12.384;2023-09-07T05:22:12;10.98;;;9.20;;
3257;SDS011;1641;51.306;12.384;2023-09-07T05:24:38;11.35;;;10.18;;
3257;SDS011;1641;51.306;12.384;2023-09-07T05:27:13;11.57;;;8.77;;
3257;SDS011;1641;51.306;12.384;2023-09-07T05:29:44;14.55;;;9.02;;
3257;SDS011;1641;51.306;12.384;2023-09-07T05:32:09;13.63;;;9.35;;
3257;SDS011;1641;51.306;12.384;2023-09-07T05:34:35;12.70;;;9.88;;
3257;SDS011;1641;51.306;12.384;2023-09-07T05:37:00;11.50;;;9.70;;
3257;SDS011;1641;51.306;12.384;2023-09-07T05:39:32;11.43;;;8.45;;
3257;SDS011;1641;51.306;12.384;2023-09-07T05:42:00;10.10;;;8.90;;
3257;SDS011;1641;51.306;12.384;2023-09-07T05:44:25;13.18;;;8.65;;
3257;SDS011;1641;51.306;12.384;2023-09-07T05:46:51;12.05;;;9.00;;
3257;SDS011;1641;51.306;12.384;2023-09-07T05:49:16;10.05;;;8.80;;
3257;SDS011;1641;51.306;12.384;2023-09-07T05:51:41;9.85;;;8.85;;
3257;SDS011;1641;51.306;12.384;2023-09-07T05:54:10;9.30;;;8.10;;
3257;SDS011;1641;51.306;12.384;2023-09-07T05:56:35;12.02;;;8.60;;
3257;SDS011;1641;51.306;12.384;2023-09-07T05:59:00;9.18;;;8.27;;
3257;SDS011;1641;51.306;12.384;2023-09-07T06:01:26;12.65;;;7.85;;
3257;SDS011;1641;51.306;12.384;2023-09-07T06:03:51;11.50;;;8.95;;
3257;SDS011;1641;51.306;12.384;2023-09-07T06:06:16;10.55;;;8.60;;
3257;SDS011;1641;51.306;12.384;2023-09-07T06:08:42;9.43;;;8.10;;
3257;SDS011;1641;51.306;12.384;2023-09-07T06:11:07;10.93;;;8.32;;
3257;SDS011;1641;51.306;12.384;2023-09-07T06:13:32;16.10;;;8.80;;
3257;SDS011;1641;51.306;12.384;2023-09-07T06:15:57;12.10;;;9.68;;
3257;SDS011;1641;51.306;12.384;2023-09-07T06:18:25;12.07;;;6.80;;
3257;SDS011;1641;51.306;12.384;2023-09-07T06:20:50;7.68;;;6.03;;
3257;SDS011;1641;51.306;12.384;2023-09-07T06:23:16;8.70;;;6.68;;
3257;SDS011;1641;51.306;12.384;2023-09-07T06:25:41;7.47;;;6.68;;
3257;SDS011;1641;51.306;12.384;2023-09-07T06:28:06;7.93;;;6.55;;
3257;SDS011;1641;51.306;12.384;2023-09-07T06:30:31;10.48;;;7.07;;
3257;SDS011;1641;51.306;12.384;2023-09-07T06:32:57;10.15;;;6.75;;
3257;SDS011;1641;51.306;12.384;2023-09-07T06:35:22;8.13;;;5.70;;
3257;SDS011;1641;51.306;12.384;2023-09-07T06:37:47;7.43;;;6.57;;
3257;SDS011;1641;51.306;12.384;2023-09-07T06:40:12;6.88;;;6.20;;
3257;SDS011;1641;51.306;12.384;2023-09-07T06:42:39;7.68;;;6.68;;
3257;SDS011;1641;51.306;12.384;2023-09-07T06:45:05;17.30;;;6.30;;
3257;SDS011;1641;51.306;12.384;2023-09-07T06:47:31;7.35;;;6.15;;
3257;SDS011;1641;51.306;12.384;2023-09-07T06:49:56;8.77;;;6.90;;
3257;SDS011;1641;51.306;12.384;2023-09-07T06:52:22;9.60;;;6.78;;
3257;SDS011;1641;51.306;12.384;2023-09-07T06:54:50;7.85;;;6.35;;
3257;SDS011;1641;51.306;12.384;2023-09-07T06:57:16;8.48;;;5.63;;
3257;SDS011;1641;51.306;12.384;2023-09-07T06:59:42;9.23;;;5.60;;
3257;SDS011;1641;51.306;12.384;2023-09-07T07:02:08;10.27;;;6.15;;
3257;SDS011;1641;51.306;12.384;2023-09-07T07:04:33;11.65;;;5.75;;
3257;SDS011;1641;51.306;12.384;2023-09-07T07:07:00;10.77;;;5.47;;
3257;SDS011;1641;51.306;12.384;2023-09-07T07:09:29;11.07;;;5.40;;
3257;SDS011;1641;51.306;12.384;2023-09-07T07:11:54;9.30;;;4.95;;
3257;SDS011;1641;51.306;12.384;2023-09-07T07:14:20;6.53;;;5.07;;
3257;SDS011;1641;51.306;12.384;2023-09-07T07:16:45;11.03;;;5.40;;
3257;SDS011;1641;51.306;12.384;2023-09-07T07:19:10;8.38;;;5.03;;
3257;SDS011;1641;51.306;12.384;2023-09-07T07:21:35;5.20;;;4.50;;
3257;SDS011;1641;51.306;12.384;2023-09-07T07:24:01;8.32;;;5.10;;
3257;SDS011;1641;51.306;12.384;2023-09-07T07:26:26;6.50;;;5.10;;
3257;SDS011;1641;51.306;12.384;2023-09-07T07:28:51;6.00;;;5.40;;
3257;SDS011;1641;51.306;12.384;2023-09-07T07:31:17;5.70;;;4.75;;
3257;SDS011;1641;51.306;12.384;2023-09-07T07:33:42;10.45;;;4.80;;
3257;SDS011;1641;51.306;12.384;2023-09-07T07:36:07;5.18;;;4.68;;
3257;SDS011;1641;51.306;12.384;2023-09-07T07:38:34;6.75;;;4.63;;
3257;SDS011;1641;51.306;12.384;2023-09-07T07:41:00;5.50;;;4.78;;
3257;SDS011;1641;51.306;12.384;2023-09-07T07:43:25;5.72;;;4.85;;
3257;SDS011;1641;51.306;12.384;2023-09-07T07:45:51;7.70;;;4.72;;
3257;SDS011;1641;51.306;12.384;2023-09-07T07:48:18;4.22;;;3.67;;
3257;SDS011;1641;51.306;12.384;2023-09-07T07:50:44;4.72;;;4.22;;
3257;SDS011;1641;51.306;12.384;2023-09-07T07:53:09;4.60;;;4.13;;
3257;SDS011;1641;51.306;12.384;2023-09-07T07:55:37;6.65;;;4.43;;
3257;SDS011;1641;51.306;12.384;2023-09-07T07:58:07;6.43;;;4.40;;
3257;SDS011;1641;51.306;12.384;2023-09-07T08:00:36;4.70;;;4.28;;
3257;SDS011;1641;51.306;12.384;2023-09-07T08:03:02;4.45;;;4.05;;
3257;SDS011;1641;51.306;12.384;2023-09-07T08:05:30;4.90;;;4.15;;
3257;SDS011;1641;51.306;12.384;2023-09-07T08:07:56;6.35;;;4.40;;
3257;SDS011;1641;51.306;12.384;2023-09-07T08:10:22;6.20;;;5.32;;
3257;SDS011;1641;51.306;12.384;2023-09-07T08:12:47;7.60;;;5.07;;
3257;SDS011;1641;51.306;12.384;2023-09-07T08:15:12;5.10;;;4.53;;
3257;SDS011;1641;51.306;12.384;2023-09-07T08:17:45;5.97;;;4.50;;
3257;SDS011;1641;51.306;12.384;2023-09-07T08:20:10;4.95;;;4.43;;
3257;SDS011;1641;51.306;12.384;2023-09-07T08:22:36;6.22;;;4.30;;
3257;SDS011;1641;51.306;12.384;2023-09-07T08:25:18;9.35;;;4.45;;
3257;SDS011;1641;51.306;12.384;2023-09-07T08:27:46;7.63;;;4.20;;
3257;SDS011;1641;51.306;12.384;2023-09-07T08:30:27;7.05;;;4.55;;
3257;SDS011;1641;51.306;12.384;2023-09-07T08:32:53;4.03;;;3.63;;
3257;SDS011;1641;51.306;12.384;2023-09-07T08:35:18;6.33;;;4.47;;
3257;SDS011;1641;51.306;12.384;2023-09-07T08:37:44;8.70;;;3.97;;
3257;SDS011;1641;51.306;12.384;2023-09-07T08:40:27;5.77;;;4.60;;
3257;SDS011;1641;51.306;12.384;2023-09-07T08:42:54;7.90;;;4.30;;
3257;SDS011;1641;51.306;12.384;2023-09-07T08:45:26;8.13;;;4.30;;
3257;SDS011;1641;51.306;12.384;2023-09-07T08:47:58;6.10;;;3.95;;
3257;SDS011;1641;51.306;12.384;2023-09-07T08:50:24;4.60;;;4.03;;
3257;SDS011;1641;51.306;12.384;2023-09-07T08:52:53;7.15;;;4.28;;
3257;SDS011;1641;51.306;12.384;2023-09-07T08:55:22;5.95;;;4.07;;
3257;SDS011;1641;51.306;12.384;2023-09-07T08:57:48;8.57;;;3.80;;
3257;SDS011;1641;51.306;12.384;2023-09-07T09:00:25;5.15;;;4.10;;
3257;SDS011;1641;51.306;12.384;2023-09-07T09:02:54;6.20;;;4.43;;
3257;SDS011;1641;51.306;12.384;2023-09-07T09:05:20;13.40;;;5.47;;
3257;SDS011;1641;51.306;12.384;2023-09-07T09:07:47;5.68;;;3.95;;
3257;SDS011;1641;51.306;12.384;2023-09-07T09:10:12;8.47;;;3.20;;
3257;SDS011;1641;51.306;12.384;2023-09-07T09:12:46;6.63;;;3.95;;
3257;SDS011;1641;51.306;12.384;2023-09-07T09:15:24;3.95;;;3.20;;
3257;SDS011;1641;51.306;12.384;2023-09-07T09:18:08;9.18;;;3.90;;
3257;SDS011;1641;51.306;12.384;2023-09-07T09:20:37;3.97;;;3.30;;
3257;SDS011;1641;51.306;12.384;2023-09-07T09:23:06;7.55;;;4.45;;
3257;SDS011;1641;51.306;12.384;2023-09-07T09:25:44;3.58;;;3.25;;
3257;SDS011;1641;51.306;12.384;2023-09-07T09:28:09;4.72;;;4.13;;
3257;SDS011;1641;51.306;12.384;2023-09-07T09:30:38;3.75;;;3.20;;
3257;SDS011;1641;51.306;12.384;2023-09-07T09:33:04;4.40;;;3.95;;
3257;SDS011;1641;51.306;12.384;2023-09-07T09:35:31;4.10;;;3.35;;
3257;SDS011;1641;51.306;12.384;2023-09-07T09:38:02;8.35;;;3.60;;
3257;SDS011;1641;51.306;12.384;2023-09-07T09:40:30;3.88;;;3.30;;
3257;SDS011;1641;51.306;12.384;2023-09-07T09:42:56;6.55;;;4.43;;
3257;SDS011;1641;51.306;12.384;2023-09-07T09:45:23;5.03;;;4.07;;
3257;SDS011;1641;51.306;12.384;2023-09-07T09:47:48;5.70;;;3.88;;
3257;SDS011;1641;51.306;12.384;2023-09-07T09:50:18;10.15;;;4.57;;
3257;SDS011;1641;51.306;12.384;2023-09-07T09:52:48;4.15;;;3.75;;
3257;SDS011;1641;51.306;12.384;2023-09-07T09:55:13;4.97;;;4.32;;
3257;SDS011;1641;51.306;12.384;2023-09-07T09:57:40;7.78;;;4.93;;
3257;SDS011;1641;51.306;12.384;2023-09-07T10:00:12;7.03;;;4.57;;
3257;SDS011;1641;51.306;12.384;2023-09-07T10:02:48;8.05;;;4.80;;
3257;SDS011;1641;51.306;12.384;2023-09-07T10:05:16;7.63;;;5.03;;
3257;SDS011;1641;51.306;12.384;2023-09-07T10:07:59;7.60;;;5.05;;
3257;SDS011;1641;51.306;12.384;2023-09-07T10:10:31;7.20;;;4.95;;
3257;SDS011;1641;51.306;12.384;2023-09-07T10:13:00;6.68;;;5.13;;
3257;SDS011;1641;51.306;12.384;2023-09-07T10:15:28;11.32;;;5.18;;
3257;SDS011;1641;51.306;12.384;2023-09-07T10:18:08;5.13;;;4.60;;
3257;SDS011;1641;51.306;12.384;2023-09-07T10:20:48;9.20;;;4.40;;
3257;SDS011;1641;51.306;12.384;2023-09-07T10:26:10;8.45;;;4.03;;
3257;SDS011;1641;51.306;12.384;2023-09-07T10:28:37;6.93;;;3.88;;
3257;SDS011;1641;51.306;12.384;2023-09-07T10:31:04;6.53;;;4.30;;
3257;SDS011;1641;51.306;12.384;2023-09-07T10:33:38;7.55;;;4.40;;
3257;SDS011;1641;51.306;12.384;2023-09-07T10:36:04;7.10;;;3.90;;
3257;SDS011;1641;51.306;12.384;2023-09-07T10:38:33;5.97;;;4.28;;
3257;SDS011;1641;51.306;12.384;2023-09-07T10:41:02;5.50;;;4.47;;
3257;SDS011;1641;51.306;12.384;2023-09-07T10:43:30;5.55;;;3.95;;
3257;SDS011;1641;51.306;12.384;2023-09-07T10:45:56;8.93;;;3.67;;
3257;SDS011;1641;51.306;12.384;2023-09-07T10:48:24;4.03;;;3.45;;
3257;SDS011;1641;51.306;12.384;2023-09-07T10:50:50;4.38;;;3.35;;
3257;SDS011;1641;51.306;12.384;2023-09-07T10:53:23;10.20;;;5.68;;
3257;SDS011;1641;51.306;12.384;2023-09-07T10:55:50;4.57;;;3.40;;
3257;SDS011;1641;51.306;12.384;2023-09-07T10:58:24;4.72;;;3.33;;
3257;SDS011;1641;51.306;12.384;2023-09-07T11:00:56;3.85;;;3.22;;
3257;SDS011;1641;51.306;12.384;2023-09-07T11:03:22;5.20;;;3.38;;
3257;SDS011;1641;51.306;12.384;2023-09-07T11:05:51;8.52;;;4.00;;
3257;SDS011;1641;51.306;12.384;2023-09-07T11:08:19;8.32;;;3.38;;
3257;SDS011;1641;51.306;12.384;2023-09-07T11:10:44;7.72;;;4.68;;
3257;SDS011;1641;51.306;12.384;2023-09-07T11:13:10;5.70;;;4.38;;
3257;SDS011;1641;51.306;12.384;2023-09-07T11:15:35;5.50;;;3.50;;
3257;SDS011;1641;51.306;12.384;2023-09-07T11:18:04;4.38;;;2.92;;
3257;SDS011;1641;51.306;12.384;2023-09-07T11:20:31;6.95;;;3.30;;
3257;SDS011;1641;51.306;12.384;2023-09-07T11:22:57;5.18;;;3.00;;
3257;SDS011;1641;51.306;12.384;2023-09-07T11:25:22;3.30;;;2.55;;
3257;SDS011;1641;51.306;12.384;2023-09-07T11:27:47;6.32;;;2.70;;
3257;SDS011;1641;51.306;12.384;2023-09-07T11:30:13;3.85;;;3.40;;
3257;SDS011;1641;51.306;12.384;2023-09-07T11:32:38;6.68;;;2.70;;
3257;SDS011;1641;51.306;12.384;2023-09-07T11:35:05;11.02;;;3.95;;
3257;SDS011;1641;51.306;12.384;2023-09-07T11:37:32;6.35;;;2.90;;
3257;SDS011;1641;51.306;12.384;2023-09-07T11:39:58;4.38;;;2.63;;
3257;SDS011;1641;51.306;12.384;2023-09-07T11:42:23;4.80;;;3.30;;
3257;SDS011;1641;51.306;12.384;2023-09-07T11:44:49;6.82;;;3.45;;
3257;SDS011;1641;51.306;12.384;2023-09-07T11:47:14;3.83;;;3.10;;
3257;SDS011;1641;51.306;12.384;2023-09-07T11:49:39;7.07;;;3.72;;
3257;SDS011;1641;51.306;12.384;2023-09-07T11:52:05;5.75;;;3.53;;
3257;SDS011;1641;51.306;12.384;2023-09-07T11:54:30;3.80;;;3.22;;
3257;SDS011;1641;51.306;12.384;2023-09-07T11:56:55;4.60;;;2.90;;
3257;SDS011;1641;51.306;12.384;2023-09-07T11:59:21;7.15;;;4.07;;
3257;SDS011;1641;51.306;12.384;2023-09-07T12:01:46;5.47;;;3.10;;
3257;SDS011;1641;51.306;12.384;2023-09-07T12:04:11;6.95;;;3.63;;
3257;SDS011;1641;51.306;12.384;2023-09-07T12:06:37;7.70;;;3.72;;
3257;SDS011;1641;51.306;12.384;2023-09-07T12:09:04;5.13;;;3.08;;
3257;SDS011;1641;51.306;12.384;2023-09-07T12:11:31;5.25;;;3.47;;
3257;SDS011;1641;51.306;12.384;2023-09-07T12:13:57;7.82;;;3.28;;
3257;SDS011;1641;51.306;12.384;2023-09-07T12:16:23;2.90;;;2.70;;
3257;SDS011;1641;51.306;12.384;2023-09-07T12:18:50;5.40;;;3.42;;
3257;SDS011;1641;51.306;12.384;2023-09-07T12:21:15;4.10;;;2.90;;
3257;SDS011;1641;51.306;12.384;2023-09-07T12:23:40;3.50;;;2.88;;
3257;SDS011;1641;51.306;12.384;2023-09-07T12:26:05;5.05;;;2.90;;
3257;SDS011;1641;51.306;12.384;2023-09-07T12:28:31;4.27;;;2.93;;
3257;SDS011;1641;51.306;12.384;2023-09-07T12:30:56;3.97;;;3.50;;
3257;SDS011;1641;51.306;12.384;2023-09-07T12:33:23;5.20;;;2.78;;
3257;SDS011;1641;51.306;12.384;2023-09-07T12:35:48;4.05;;;2.63;;
3257;SDS011;1641;51.306;12.384;2023-09-07T12:38:14;5.25;;;3.13;;
3257;SDS011;1641;51.306;12.384;2023-09-07T12:40:42;8.27;;;3.08;;
3257;SDS011;1641;51.306;12.384;2023-09-07T12:43:09;6.57;;;2.92;;
3257;SDS011;1641;51.306;12.384;2023-09-07T12:45:34;6.78;;;2.78;;
3257;SDS011;1641;51.306;12.384;2023-09-07T12:47:59;6.32;;;2.58;;
3257;SDS011;1641;51.306;12.384;2023-09-07T12:50:26;3.83;;;2.95;;
3257;SDS011;1641;51.306;12.384;2023-09-07T12:52:51;9.05;;;3.05;;
3257;SDS011;1641;51.306;12.384;2023-09-07T12:55:17;8.00;;;3.03;;
3257;SDS011;1641;51.306;12.384;2023-09-07T12:57:43;2.80;;;2.40;;
3257;SDS011;1641;51.306;12.384;2023-09-07T13:00:09;5.25;;;2.78;;
3257;SDS011;1641;51.306;12.384;2023-09-07T13:02:35;3.47;;;2.92;;
3257;SDS011;1641;51.306;12.384;2023-09-07T13:05:01;4.25;;;2.63;;
3257;SDS011;1641;51.306;12.384;2023-09-07T13:07:30;3.67;;;2.92;;
3257;SDS011;1641;51.306;12.384;2023-09-07T13:09:55;4.15;;;2.50;;
3257;SDS011;1641;51.306;12.384;2023-09-07T13:12:20;5.03;;;2.63;;
3257;SDS011;1641;51.306;12.384;2023-09-07T13:14:46;8.33;;;2.70;;
3257;SDS011;1641;51.306;12.384;2023-09-07T13:17:12;2.88;;;2.20;;
3257;SDS011;1641;51.306;12.384;2023-09-07T13:19:41;2.72;;;2.13;;
3257;SDS011;1641;51.306;12.384;2023-09-07T13:22:06;7.35;;;3.05;;
3257;SDS011;1641;51.306;12.384;2023-09-07T13:24:34;8.02;;;2.78;;
3257;SDS011;1641;51.306;12.384;2023-09-07T13:27:00;6.68;;;2.58;;
3257;SDS011;1641;51.306;12.384;2023-09-07T13:29:27;2.78;;;2.50;;
3257;SDS011;1641;51.306;12.384;2023-09-07T13:31:52;3.72;;;2.22;;
3257;SDS011;1641;51.306;12.384;2023-09-07T13:34:18;4.78;;;2.90;;
3257;SDS011;1641;51.306;12.384;2023-09-07T13:36:45;5.95;;;2.63;;
3257;SDS011;1641;51.306;12.384;2023-09-07T13:39:10;3.47;;;3.13;;
3257;SDS011;1641;51.306;12.384;2023-09-07T13:41:35;4.18;;;2.80;;
3257;SDS011;1641;51.306;12.384;2023-09-07T13:44:01;4.23;;;2.23;;
3257;SDS011;1641;51.306;12.384;2023-09-07T13:46:26;4.32;;;2.30;;
3257;SDS011;1641;51.306;12.384;2023-09-07T13:48:52;7.55;;;2.60;;
3257;SDS011;1641;51.306;12.384;2023-09-07T13:51:17;2.85;;;2.60;;
3257;SDS011;1641;51.306;12.384;2023-09-07T13:53:42;5.13;;;2.90;;
3257;SDS011;1641;51.306;12.384;2023-09-07T13:56:08;4.30;;;2.83;;
3257;SDS011;1641;51.306;12.384;2023-09-07T13:58:33;4.35;;;2.45;;
3257;SDS011;1641;51.306;12.384;2023-09-07T14:00:58;4.82;;;2.15;;
3257;SDS011;1641;51.306;12.384;2023-09-07T14:03:24;8.25;;;2.67;;
3257;SDS011;1641;51.306;12.384;2023-09-07T14:05:49;3.22;;;2.25;;
3257;SDS011;1641;51.306;12.384;2023-09-07T14:08:15;2.92;;;2.40;;
3257;SDS011;1641;51.306;12.384;2023-09-07T14:10:40;4.38;;;2.60;;
3257;SDS011;1641;51.306;12.384;2023-09-07T14:13:06;4.75;;;2.55;;
3257;SDS011;1641;51.306;12.384;2023-09-07T14:15:31;4.35;;;2.50;;
3257;SDS011;1641;51.306;12.384;2023-09-07T14:17:56;4.05;;;2.83;;
3257;SDS011;1641;51.306;12.384;2023-09-07T14:20:22;6.00;;;2.90;;
3257;SDS011;1641;51.306;12.384;2023-09-07T14:22:47;3.22;;;2.47;;
3257;SDS011;1641;51.306;12.384;2023-09-07T14:25:12;3.78;;;2.28;;
3257;SDS011;1641;51.306;12.384;2023-09-07T14:27:38;5.90;;;3.20;;
3257;SDS011;1641;51.306;12.384;2023-09-07T14:30:04;3.35;;;2.75;;
3257;SDS011;1641;51.306;12.384;2023-09-07T14:32:30;3.90;;;2.83;;
3257;SDS011;1641;51.306;12.384;2023-09-07T14:34:55;11.75;;;2.88;;
3257;SDS011;1641;51.306;12.384;2023-09-07T14:37:21;4.50;;;2.40;;
3257;SDS011;1641;51.306;12.384;2023-09-07T14:39:46;4.20;;;2.75;;
3257;SDS011;1641;51.306;12.384;2023-09-07T14:42:14;5.97;;;3.65;;
3257;SDS011;1641;51.306;12.384;2023-09-07T14:44:42;3.58;;;2.40;;
3257;SDS011;1641;51.306;12.384;2023-09-07T14:47:08;4.22;;;2.33;;
3257;SDS011;1641;51.306;12.384;2023-09-07T14:49:35;2.60;;;2.40;;
3257;SDS011;1641;51.306;12.384;2023-09-07T14:52:00;4.25;;;2.65;;
3257;SDS011;1641;51.306;12.384;2023-09-07T14:54:25;2.70;;;2.40;;
3257;SDS011;1641;51.306;12.384;2023-09-07T14:56:51;9.45;;;3.47;;
3257;SDS011;1641;51.306;12.384;2023-09-07T14:59:16;4.22;;;2.70;;